Time;durP1;ratioP1;P1;durP2;ratioP2;P2;SDS_P1;SDS_P2;PMS_P1;PMS_P2;Temp;Humidity;BMP_temperature;BMP_pressure;BME280_temperature;BME280_humidity;BME280_pressure;Samples;Min_cycle;Max_cycle;Signal;HPM_P1;HPM_P2
2022/12/02 00:00:48;;;;;;;;;;;8.30;79.40;;;;;;5115120;28;19938;-89
2022/12/02 00:03:16;;;;;;;;;;;8.30;79.50;;;;;;5115067;28;19944;-89
2022/12/02 00:05:41;;;;;;;;;;;8.30;79.80;;;;;;5114604;28;19981;-89
2022/12/02 00:08:15;;;;;;;;;;;8.20;80.20;;;;;;5114255;28;19959;-89
2022/12/02 00:10:42;;;;;;;;;;;8.10;80.40;;;;;;5114912;28;19945;-89
2022/12/02 00:13:17;;;;;;;;;;;8.10;80.70;;;;;;5114832;28;19984;-89
2022/12/02 00:15:44;;;;;;;;;;;8.10;80.90;;;;;;5114736;28;20485;-89
2022/12/02 00:18:10;;;;;;;;;;;8.00;81.20;;;;;;5114766;28;20093;-88
2022/12/02 00:20:37;;;;;;;;;;;8.10;81.40;;;;;;5114701;28;19991;-89
2022/12/02 00:23:02;;;;;;;;;;;8.10;81.50;;;;;;5114497;28;20453;-89
2022/12/02 00:25:28;;;;;;;;;;;8.10;81.40;;;;;;5096298;28;19939;-89
2022/12/02 00:27:53;;;;;;;;;;;8.10;81.30;;;;;;5114567;28;19944;-89
2022/12/02 00:30:19;;;;;;;;;;;8.10;81.50;;;;;;5114515;28;20319;-89
2022/12/02 00:32:44;;;;;;;;;;;8.20;81.40;;;;;;5096230;28;19970;-89
2022/12/02 00:35:10;;;;;;;;;;;8.20;81.40;;;;;;5096037;28;20454;-89
2022/12/02 00:37:35;;;;;;;;;;;8.20;81.50;;;;;;5114391;28;19946;-89
2022/12/02 00:40:01;;;;;;;;;;;8.20;81.60;;;;;;5114396;28;20300;-89
2022/12/02 00:42:26;;;;;;;;;;;8.20;81.70;;;;;;5114321;28;20304;-90
2022/12/02 00:47:36;;;;;;;;;;;8.20;82.00;;;;;;5114230;28;19950;-89
2022/12/02 00:50:02;;;;;;;;;;;8.20;82.00;;;;;;5114171;28;19937;-89
2022/12/02 00:52:28;;;;;;;;;;;8.20;82.20;;;;;;5113947;28;19956;-89
2022/12/02 00:54:53;;;;;;;;;;;8.10;82.70;;;;;;5113911;28;20015;-89
2022/12/02 00:57:19;;;;;;;;;;;8.10;82.90;;;;;;5114047;28;19938;-89
2022/12/02 00:59:44;;;;;;;;;;;8.10;82.90;;;;;;5114042;28;19945;-89
2022/12/02 01:02:10;;;;;;;;;;;8.10;83.00;;;;;;5113965;28;19973;-89
2022/12/02 01:04:35;;;;;;;;;;;8.10;83.20;;;;;;5113919;28;19985;-89
2022/12/02 01:07:01;;;;;;;;;;;8.00;83.50;;;;;;5113913;28;20028;-90
2022/12/02 01:09:27;;;;;;;;;;;8.00;83.70;;;;;;5113860;28;19934;-89
2022/12/02 01:11:52;;;;;;;;;;;8.00;83.60;;;;;;5113844;28;19944;-89
2022/12/02 01:14:18;;;;;;;;;;;8.00;83.60;;;;;;5113700;28;19956;-89
2022/12/02 01:16:43;;;;;;;;;;;8.00;83.50;;;;;;5113765;28;19938;-90
2022/12/02 01:19:09;;;;;;;;;;;8.10;83.40;;;;;;5113364;28;19935;-89
2022/12/02 01:21:34;;;;;;;;;;;8.10;83.50;;;;;;5113688;28;20041;-89
2022/12/02 01:24:00;;;;;;;;;;;8.00;83.60;;;;;;5113537;28;20060;-89
2022/12/02 01:26:25;;;;;;;;;;;8.10;83.20;;;;;;5095393;28;20027;-89
2022/12/02 01:28:51;;;;;;;;;;;8.10;83.10;;;;;;5113639;28;20062;-89
2022/12/02 01:31:16;;;;;;;;;;;8.00;83.00;;;;;;5113600;28;19944;-89
2022/12/02 01:33:42;;;;;;;;;;;8.00;83.10;;;;;;5095304;28;19943;-89
2022/12/02 01:36:08;;;;;;;;;;;8.00;83.20;;;;;;5113447;28;20400;-89
2022/12/02 01:38:33;;;;;;;;;;;8.00;83.20;;;;;;5113526;28;19944;-89
2022/12/02 01:40:59;;;;;;;;;;;8.00;83.20;;;;;;5113703;28;19941;-89
2022/12/02 01:43:25;;;;;;;;;;;7.90;83.50;;;;;;5113510;28;20275;-89
2022/12/02 01:45:51;;;;;;;;;;;7.90;83.60;;;;;;5113497;28;19948;-89
2022/12/02 01:48:17;;;;;;;;;;;7.90;83.70;;;;;;5113418;28;20309;-89
2022/12/02 01:50:42;;;;;;;;;;;7.90;83.70;;;;;;5095149;28;19940;-89
2022/12/02 01:53:08;;;;;;;;;;;7.90;83.70;;;;;;5113186;28;19956;-89
2022/12/02 01:55:34;;;;;;;;;;;7.90;83.60;;;;;;5113316;28;19962;-89
2022/12/02 01:57:59;;;;;;;;;;;7.90;83.50;;;;;;5113358;28;19940;-89
2022/12/02 02:00:25;;;;;;;;;;;7.90;83.70;;;;;;5113307;28;20025;-89
2022/12/02 02:02:51;;;;;;;;;;;7.90;83.90;;;;;;5113274;28;20286;-89
2022/12/02 02:05:19;;;;;;;;;;;7.90;84.10;;;;;;5113286;28;20288;-89
2022/12/02 02:07:49;;;;;;;;;;;7.90;84.20;;;;;;5113260;28;20046;-89
2022/12/02 02:10:14;;;;;;;;;;;7.90;84.40;;;;;;5113215;28;20380;-89
2022/12/02 02:12:40;;;;;;;;;;;7.90;84.60;;;;;;5113171;28;19970;-89
2022/12/02 02:15:07;;;;;;;;;;;7.90;84.80;;;;;;5113102;28;20050;-89
2022/12/02 02:17:32;;;;;;;;;;;7.90;84.90;;;;;;5113161;28;19942;-89
2022/12/02 02:19:58;;;;;;;;;;;7.90;85.00;;;;;;5113040;28;19948;-89
2022/12/02 02:22:45;;;;;;;;;;;7.80;85.20;;;;;;5113098;28;19945;-89
2022/12/02 02:25:12;;;;;;;;;;;7.80;85.40;;;;;;5113108;28;19949;-89
2022/12/02 02:27:38;;;;;;;;;;;7.80;85.60;;;;;;5112886;28;19951;-89
2022/12/02 02:30:04;;;;;;;;;;;7.70;85.70;;;;;;5114285;28;19938;-88
2022/12/02 02:32:30;;;;;;;;;;;7.80;85.80;;;;;;5116750;28;19936;-89
2022/12/02 02:34:55;;;;;;;;;;;7.70;85.80;;;;;;5116743;28;19957;-88
2022/12/02 02:37:21;;;;;;;;;;;7.70;85.90;;;;;;5116720;28;20391;-89
2022/12/02 02:39:46;;;;;;;;;;;7.70;86.00;;;;;;5116688;28;20307;-88
2022/12/02 02:42:12;;;;;;;;;;;7.70;86.00;;;;;;5098395;28;20383;-89
2022/12/02 02:44:37;;;;;;;;;;;7.70;85.90;;;;;;5116630;28;19987;-89
2022/12/02 02:47:03;;;;;;;;;;;7.80;85.90;;;;;;5098290;28;19941;-89
2022/12/02 02:49:29;;;;;;;;;;;7.80;85.80;;;;;;5116476;28;19934;-89
2022/12/02 02:51:54;;;;;;;;;;;7.80;85.50;;;;;;5116416;28;20400;-89
2022/12/02 02:54:20;;;;;;;;;;;7.80;85.50;;;;;;5116269;28;20454;-89
2022/12/02 02:56:45;;;;;;;;;;;7.80;85.50;;;;;;5098046;28;19951;-89
2022/12/02 02:59:14;;;;;;;;;;;7.70;85.60;;;;;;5098033;28;19984;-88
2022/12/02 03:01:41;;;;;;;;;;;7.70;85.60;;;;;;5116509;28;19947;-89
2022/12/02 03:04:09;;;;;;;;;;;7.70;85.60;;;;;;5097931;28;20397;-89
2022/12/02 03:06:35;;;;;;;;;;;7.70;85.70;;;;;;5116145;28;19936;-89
2022/12/02 03:09:01;;;;;;;;;;;7.70;85.70;;;;;;5116160;28;19946;-88
2022/12/02 03:11:27;;;;;;;;;;;7.70;85.70;;;;;;5116095;28;19946;-89
2022/12/02 03:13:54;;;;;;;;;;;7.80;85.60;;;;;;5116011;28;19939;-89
2022/12/02 03:16:20;;;;;;;;;;;7.80;85.60;;;;;;5115984;28;20046;-89
2022/12/02 03:18:46;;;;;;;;;;;7.80;85.50;;;;;;5115940;28;19963;-89
2022/12/02 03:21:14;;;;;;;;;;;7.80;85.30;;;;;;5097732;28;20321;-89
2022/12/02 03:23:39;;;;;;;;;;;7.90;85.30;;;;;;5115682;28;19972;-89
2022/12/02 03:26:05;;;;;;;;;;;7.90;85.10;;;;;;5115788;28;19945;-89
2022/12/02 03:28:31;;;;;;;;;;;7.90;85.00;;;;;;5115999;28;20466;-89
2022/12/02 03:30:56;;;;;;;;;;;7.90;85.00;;;;;;5115708;28;20453;-89
2022/12/02 03:33:22;;;;;;;;;;;7.90;84.90;;;;;;5115672;28;20298;-89
2022/12/02 03:35:48;;;;;;;;;;;7.90;84.90;;;;;;5115516;28;20016;-89
2022/12/02 03:38:14;;;;;;;;;;;7.90;85.00;;;;;;5115585;28;19987;-89
2022/12/02 03:40:39;;;;;;;;;;;7.90;85.10;;;;;;5115283;28;19936;-89
2022/12/02 03:43:05;;;;;;;;;;;7.90;85.20;;;;;;5115452;28;20396;-90
2022/12/02 03:45:31;;;;;;;;;;;7.80;85.40;;;;;;5115428;28;19936;-89
2022/12/02 03:47:57;;;;;;;;;;;7.80;85.50;;;;;;5115394;28;19940;-89
2022/12/02 03:50:22;;;;;;;;;;;7.70;85.50;;;;;;5115358;28;19945;-88
2022/12/02 03:52:48;;;;;;;;;;;7.80;85.60;;;;;;5115118;28;19955;-89
2022/12/02 03:55:14;;;;;;;;;;;7.80;85.60;;;;;;5115106;28;19955;-89
2022/12/02 03:57:41;;;;;;;;;;;7.80;85.70;;;;;;5115468;28;19946;-89
2022/12/02 04:00:07;;;;;;;;;;;7.70;85.50;;;;;;5115163;28;19937;-89
2022/12/02 04:02:33;;;;;;;;;;;7.80;85.50;;;;;;5115360;28;19949;-89
2022/12/02 04:04:58;;;;;;;;;;;7.70;85.50;;;;;;5115019;28;19933;-89
2022/12/02 04:07:24;;;;;;;;;;;7.70;85.50;;;;;;5096670;28;19968;-89
2022/12/02 04:09:49;;;;;;;;;;;7.70;85.60;;;;;;5114992;28;19940;-89
2022/12/02 04:12:15;;;;;;;;;;;7.60;85.50;;;;;;5114925;28;20392;-89
2022/12/02 04:14:40;;;;;;;;;;;7.50;85.60;;;;;;5096490;28;20057;-89
2022/12/02 04:17:06;;;;;;;;;;;7.50;85.90;;;;;;5114824;28;19939;-89
2022/12/02 04:19:31;;;;;;;;;;;7.40;86.00;;;;;;5114767;28;19937;-89
2022/12/02 04:21:57;;;;;;;;;;;7.40;86.00;;;;;;5114740;28;20032;-88
2022/12/02 04:24:23;;;;;;;;;;;7.40;86.00;;;;;;5114491;28;20012;-89
2022/12/02 04:26:48;;;;;;;;;;;7.40;86.00;;;;;;5096266;28;19941;-89
2022/12/02 04:29:14;;;;;;;;;;;7.40;86.00;;;;;;5114609;28;19949;-89
2022/12/02 04:31:39;;;;;;;;;;;7.40;86.10;;;;;;5114780;28;19949;-89
2022/12/02 04:34:05;;;;;;;;;;;7.40;86.10;;;;;;5114411;28;20456;-89
2022/12/02 04:36:30;;;;;;;;;;;7.40;86.10;;;;;;5114423;28;20471;-89
2022/12/02 04:38:56;;;;;;;;;;;7.40;86.20;;;;;;5114404;28;20306;-88
2022/12/02 04:41:22;;;;;;;;;;;7.40;86.20;;;;;;5114342;28;20420;-89
2022/12/02 04:43:47;;;;;;;;;;;7.40;86.20;;;;;;5114271;28;20304;-89
2022/12/02 04:46:13;;;;;;;;;;;7.40;86.30;;;;;;5114197;28;20319;-89
2022/12/02 04:48:38;;;;;;;;;;;7.30;86.40;;;;;;5114449;28;19970;-89
2022/12/02 04:51:04;;;;;;;;;;;7.30;86.40;;;;;;5114148;28;19935;-89
2022/12/02 04:53:29;;;;;;;;;;;7.30;86.40;;;;;;5113286;28;20413;-89
2022/12/02 04:55:55;;;;;;;;;;;7.40;86.20;;;;;;5114232;28;19966;-89
2022/12/02 04:58:20;;;;;;;;;;;7.40;86.10;;;;;;5114059;28;20408;-89
2022/12/02 05:00:46;;;;;;;;;;;7.40;86.00;;;;;;5113975;28;19945;-89
2022/12/02 05:03:11;;;;;;;;;;;7.40;86.00;;;;;;5113988;28;19940;-88
2022/12/02 05:05:37;;;;;;;;;;;7.40;86.10;;;;;;5113932;28;19940;-89
2022/12/02 05:08:03;;;;;;;;;;;7.40;86.00;;;;;;5113826;28;20408;-89
2022/12/02 05:10:28;;;;;;;;;;;7.40;86.10;;;;;;5113850;28;19944;-89
2022/12/02 05:12:54;;;;;;;;;;;7.40;86.10;;;;;;5113849;28;19945;-88
2022/12/02 05:15:19;;;;;;;;;;;7.40;86.20;;;;;;5113720;28;19956;-89
2022/12/02 05:17:45;;;;;;;;;;;7.40;86.10;;;;;;5113758;28;20086;-89
2022/12/02 05:20:11;;;;;;;;;;;7.40;86.00;;;;;;5113698;28;19937;-89
2022/12/02 05:22:36;;;;;;;;;;;7.40;86.00;;;;;;5113571;28;19942;-89
2022/12/02 05:25:02;;;;;;;;;;;7.40;86.00;;;;;;5114170;28;19969;-89
2022/12/02 05:27:28;;;;;;;;;;;7.40;86.10;;;;;;5095426;28;19953;-89
2022/12/02 05:29:53;;;;;;;;;;;7.40;86.10;;;;;;5113679;28;19944;-88
2022/12/02 05:32:19;;;;;;;;;;;7.40;86.10;;;;;;5113623;28;20039;-89
2022/12/02 05:34:44;;;;;;;;;;;7.40;86.20;;;;;;5113516;28;19959;-89
2022/12/02 05:37:10;;;;;;;;;;;7.40;86.10;;;;;;5113553;28;19978;-89
2022/12/02 05:39:35;;;;;;;;;;;7.40;86.00;;;;;;5113550;28;20000;-88
2022/12/02 05:42:04;;;;;;;;;;;7.40;86.00;;;;;;5113518;28;20397;-89
2022/12/02 05:44:29;;;;;;;;;;;7.50;85.90;;;;;;5113389;28;19980;-89
2022/12/02 05:47:00;;;;;;;;;;;7.50;85.70;;;;;;5113447;28;19969;-88
2022/12/02 05:49:25;;;;;;;;;;;7.50;85.60;;;;;;5113435;28;19968;-89
2022/12/02 05:51:57;;;;;;;;;;;7.50;85.60;;;;;;5113383;28;19938;-89
2022/12/02 05:54:24;;;;;;;;;;;7.60;85.50;;;;;;5112613;28;19964;-89
2022/12/02 05:56:50;;;;;;;;;;;7.60;85.10;;;;;;5113293;28;19971;-89
2022/12/02 05:59:16;;;;;;;;;;;7.60;85.30;;;;;;5112007;28;20377;-89
2022/12/02 06:01:42;;;;;;;;;;;7.60;85.20;;;;;;5112174;28;19955;-89
2022/12/02 06:04:12;;;;;;;;;;;7.60;85.10;;;;;;5114248;28;19950;-89
2022/12/02 06:06:37;;;;;;;;;;;7.70;84.90;;;;;;5116621;28;19947;-89
2022/12/02 06:09:10;;;;;;;;;;;7.70;84.80;;;;;;5117315;28;19936;-89
2022/12/02 06:11:37;;;;;;;;;;;7.70;84.80;;;;;;5117005;28;20003;-89
2022/12/02 06:14:17;;;;;;;;;;;7.80;84.70;;;;;;5115804;28;19940;-89
2022/12/02 06:16:53;;;;;;;;;;;7.80;84.60;;;;;;5098779;28;20078;-89
2022/12/02 06:19:29;;;;;;;;;;;7.80;84.70;;;;;;5116494;28;19955;-89
2022/12/02 06:21:58;;;;;;;;;;;7.80;84.60;;;;;;5113696;28;19941;-89
2022/12/02 06:24:26;;;;;;;;;;;7.80;84.70;;;;;;5116714;28;20066;-89
2022/12/02 06:26:51;;;;;;;;;;;7.80;84.70;;;;;;5116120;28;19942;-90
2022/12/02 06:29:18;;;;;;;;;;;7.90;84.70;;;;;;5116399;28;19951;-90
2022/12/02 06:31:43;;;;;;;;;;;7.90;84.60;;;;;;5112674;28;19993;-89
2022/12/02 06:34:26;;;;;;;;;;;7.90;84.50;;;;;;5108800;28;19940;-89
2022/12/02 06:36:52;;;;;;;;;;;7.90;84.40;;;;;;5110649;28;19985;-90
2022/12/02 06:39:20;;;;;;;;;;;7.90;84.30;;;;;;5110487;28;19992;-90
2022/12/02 06:41:46;;;;;;;;;;;7.90;84.20;;;;;;5114729;28;19951;-89
2022/12/02 06:46:59;;;;;;;;;;;8.00;83.90;;;;;;5110980;28;19997;-90
2022/12/02 06:49:29;;;;;;;;;;;8.10;84.00;;;;;;5092903;28;19960;-89
2022/12/02 06:51:57;;;;;;;;;;;8.10;83.70;;;;;;5113915;28;19947;-89
2022/12/02 06:54:25;;;;;;;;;;;8.20;83.70;;;;;;5097755;28;19967;-89
2022/12/02 06:56:51;;;;;;;;;;;8.20;83.60;;;;;;5096028;28;19949;-90
2022/12/02 06:59:20;;;;;;;;;;;8.20;83.70;;;;;;5078258;28;19998;-90
2022/12/02 07:01:46;;;;;;;;;;;8.20;83.50;;;;;;5110384;28;20051;-89
2022/12/02 07:04:30;;;;;;;;;;;8.30;83.00;;;;;;5107947;28;20033;-89
2022/12/02 07:07:01;;;;;;;;;;;8.30;83.10;;;;;;5111140;28;19945;-89
2022/12/02 07:09:41;;;;;;;;;;;8.20;83.00;;;;;;5112962;28;19940;-89
2022/12/02 07:12:13;;;;;;;;;;;8.20;83.50;;;;;;5109013;28;19966;-89
2022/12/02 07:14:41;;;;;;;;;;;8.30;83.30;;;;;;5112718;28;19975;-90
2022/12/02 07:17:22;;;;;;;;;;;8.40;82.60;;;;;;5104392;28;20402;-89
2022/12/02 07:19:52;;;;;;;;;;;8.40;82.00;;;;;;5112756;28;19949;-89
2022/12/02 07:22:20;;;;;;;;;;;8.40;81.50;;;;;;5110177;28;19945;-90
2022/12/02 07:25:04;;;;;;;;;;;8.70;80.90;;;;;;5075595;22;19992;-89
2022/12/02 07:27:31;;;;;;;;;;;8.70;80.60;;;;;;5068986;28;19961;-89
2022/12/02 07:29:56;;;;;;;;;;;8.70;80.60;;;;;;5070481;28;19953;-89
2022/12/02 07:32:22;;;;;;;;;;;8.60;81.00;;;;;;5071239;28;19941;-89
2022/12/02 07:34:48;;;;;;;;;;;8.60;80.70;;;;;;5073734;28;19953;-89
2022/12/02 07:37:13;;;;;;;;;;;8.60;80.70;;;;;;5072825;28;20068;-90
2022/12/02 07:39:39;;;;;;;;;;;8.60;80.70;;;;;;5068512;28;20029;-90
2022/12/02 07:42:05;;;;;;;;;;;8.50;81.20;;;;;;5064320;28;19948;-90
2022/12/02 07:44:30;;;;;;;;;;;8.50;81.30;;;;;;5068813;28;19942;-89
2022/12/02 07:46:56;;;;;;;;;;;8.50;80.90;;;;;;5069611;28;19955;-89
2022/12/02 07:49:21;;;;;;;;;;;8.60;80.70;;;;;;5070484;28;19947;-89
2022/12/02 07:51:47;;;;;;;;;;;8.60;80.70;;;;;;5064865;28;19947;-89
2022/12/02 07:54:12;;;;;;;;;;;8.60;80.80;;;;;;5066657;28;19981;-90
2022/12/02 07:56:38;;;;;;;;;;;8.80;80.60;;;;;;5062120;28;20022;-89
2022/12/02 07:59:03;;;;;;;;;;;8.90;80.10;;;;;;5061422;28;19945;-89
2022/12/02 08:01:29;;;;;;;;;;;8.90;80.10;;;;;;5066002;28;20009;-89
2022/12/02 08:03:55;;;;;;;;;;;8.80;80.50;;;;;;5067169;28;19944;-89
2022/12/02 08:06:20;;;;;;;;;;;8.80;80.60;;;;;;5066647;28;20039;-89
2022/12/02 08:08:46;;;;;;;;;;;8.80;80.80;;;;;;5068634;28;20048;-89
2022/12/02 08:11:11;;;;;;;;;;;8.70;81.00;;;;;;5067594;28;19986;-89
2022/12/02 08:13:37;;;;;;;;;;;8.80;81.20;;;;;;5066451;28;19948;-90
2022/12/02 08:16:02;;;;;;;;;;;8.90;80.90;;;;;;5065167;28;19967;-89
2022/12/02 08:18:28;;;;;;;;;;;8.90;81.30;;;;;;5065217;28;19958;-89
2022/12/02 08:20:53;;;;;;;;;;;8.90;80.90;;;;;;5068650;28;19947;-89
2022/12/02 08:23:19;;;;;;;;;;;8.90;81.00;;;;;;5065986;28;20433;-89
2022/12/02 08:25:45;;;;;;;;;;;9.00;80.60;;;;;;5069244;28;20079;-90
2022/12/02 08:28:10;;;;;;;;;;;9.00;80.90;;;;;;5070854;28;19946;-90
2022/12/02 08:30:36;;;;;;;;;;;9.20;80.10;;;;;;5068956;28;19952;-89
2022/12/02 08:33:01;;;;;;;;;;;9.30;79.50;;;;;;5075249;28;20458;-89
2022/12/02 08:35:27;;;;;;;;;;;9.20;79.60;;;;;;5068936;28;19987;-90
2022/12/02 08:37:52;;;;;;;;;;;9.10;79.70;;;;;;5070752;28;19958;-88
2022/12/02 08:40:18;;;;;;;;;;;9.00;79.70;;;;;;5065754;28;19944;-89
2022/12/02 08:42:43;;;;;;;;;;;9.00;80.20;;;;;;5064447;28;19938;-89
2022/12/02 08:45:09;;;;;;;;;;;8.90;80.10;;;;;;5065397;28;20008;-88
2022/12/02 08:47:35;;;;;;;;;;;8.90;80.50;;;;;;5068290;28;20089;-89
2022/12/02 08:50:00;;;;;;;;;;;8.90;80.40;;;;;;5069671;28;19986;-90
2022/12/02 08:52:26;;;;;;;;;;;9.00;80.20;;;;;;5070614;28;20011;-89
2022/12/02 08:54:52;;;;;;;;;;;9.10;80.00;;;;;;5069511;28;19963;-90
2022/12/02 08:57:18;;;;;;;;;;;9.20;79.70;;;;;;5068189;28;19939;-89
2022/12/02 08:59:43;;;;;;;;;;;9.20;78.60;;;;;;5069405;28;19953;-89
2022/12/02 09:02:09;;;;;;;;;;;9.20;78.50;;;;;;5069659;28;19940;-87
2022/12/02 09:04:34;;;;;;;;;;;9.30;78.60;;;;;;5068923;28;19973;-88
2022/12/02 09:07:00;;;;;;;;;;;9.40;78.20;;;;;;5068470;28;19955;-88
2022/12/02 09:09:25;;;;;;;;;;;9.30;77.70;;;;;;5068561;28;19988;-87
2022/12/02 09:11:51;;;;;;;;;;;9.30;78.10;;;;;;5069938;28;19975;-87
2022/12/02 09:14:16;;;;;;;;;;;9.20;78.30;;;;;;5066219;28;19953;-87
2022/12/02 09:16:42;;;;;;;;;;;9.10;78.50;;;;;;5066919;28;20052;-87
2022/12/02 09:19:08;;;;;;;;;;;9.10;78.70;;;;;;5064024;28;20047;-87
2022/12/02 09:21:33;;;;;;;;;;;9.10;79.20;;;;;;5062888;28;19986;-88
2022/12/02 09:23:59;;;;;;;;;;;9.10;79.70;;;;;;5063931;28;19970;-88
2022/12/02 09:26:24;;;;;;;;;;;9.20;79.80;;;;;;5066544;28;19940;-88
2022/12/02 09:28:50;;;;;;;;;;;9.30;79.10;;;;;;5061187;28;20320;-87
2022/12/02 09:31:15;;;;;;;;;;;9.40;78.50;;;;;;5062739;28;19944;-89
2022/12/02 09:33:41;;;;;;;;;;;9.40;78.40;;;;;;5067427;28;19948;-88
2022/12/02 09:36:06;;;;;;;;;;;9.40;77.80;;;;;;5066341;28;19946;-88
2022/12/02 09:38:32;;;;;;;;;;;9.50;77.90;;;;;;5071388;28;19943;-88
2022/12/02 09:40:58;;;;;;;;;;;9.50;77.50;;;;;;5070732;28;19940;-87
2022/12/02 09:43:24;;;;;;;;;;;9.50;78.20;;;;;;5078112;28;19951;-87
2022/12/02 09:45:49;;;;;;;;;;;9.40;78.20;;;;;;5076712;28;19955;-87
2022/12/02 09:48:15;;;;;;;;;;;9.50;78.40;;;;;;5075418;28;19948;-86
2022/12/02 09:50:40;;;;;;;;;;;9.50;77.60;;;;;;5077784;28;19944;-86
2022/12/02 09:53:06;;;;;;;;;;;9.40;77.60;;;;;;5076923;28;19965;-86
2022/12/02 09:55:33;;;;;;;;;;;9.40;77.50;;;;;;5077503;28;20008;-88
2022/12/02 09:58:13;;;;;;;;;;;9.50;76.80;;;;;;5077754;28;19940;-87
2022/12/02 10:00:39;;;;;;;;;;;9.60;76.10;;;;;;5076010;28;20037;-87
2022/12/02 10:03:05;;;;;;;;;;;9.60;75.10;;;;;;5074922;28;20037;-87
2022/12/02 10:05:31;;;;;;;;;;;9.60;75.60;;;;;;5076608;28;19942;-87
2022/12/02 10:07:57;;;;;;;;;;;9.70;75.10;;;;;;5069931;28;19955;-87
2022/12/02 10:10:24;;;;;;;;;;;9.60;75.40;;;;;;5077508;28;19948;-86
2022/12/02 10:12:51;;;;;;;;;;;9.70;74.00;;;;;;5076946;28;19947;-86
2022/12/02 10:15:19;;;;;;;;;;;9.70;73.50;;;;;;5076426;28;19969;-87
2022/12/02 10:17:45;;;;;;;;;;;9.60;74.00;;;;;;5076291;28;20268;-86
2022/12/02 10:20:28;;;;;;;;;;;9.60;73.80;;;;;;5077882;28;19939;-87
2022/12/02 10:23:04;;;;;;;;;;;9.50;74.20;;;;;;5071791;28;20039;-88
2022/12/02 10:25:30;;;;;;;;;;;9.60;75.40;;;;;;5069255;28;19948;-87
2022/12/02 10:27:56;;;;;;;;;;;9.60;75.20;;;;;;5071997;28;19956;-87
2022/12/02 10:30:24;;;;;;;;;;;9.60;74.70;;;;;;5072615;28;19950;-87
2022/12/02 10:33:03;;;;;;;;;;;9.70;74.30;;;;;;5074824;28;19957;-87
2022/12/02 10:35:45;;;;;;;;;;;9.80;73.90;;;;;;5074628;28;19965;-87
2022/12/02 10:38:31;;;;;;;;;;;9.90;73.00;;;;;;5072387;28;20005;-88
2022/12/02 10:41:11;;;;;;;;;;;9.90;73.90;;;;;;5078640;28;19953;-89
2022/12/02 10:43:37;;;;;;;;;;;9.90;73.80;;;;;;5066792;28;19950;-88
2022/12/02 10:46:03;;;;;;;;;;;10.00;72.40;;;;;;5074706;28;19941;-88
2022/12/02 10:48:29;;;;;;;;;;;10.10;70.90;;;;;;5077524;28;19989;-88
2022/12/02 10:50:54;;;;;;;;;;;10.10;71.60;;;;;;5073429;28;19939;-88
2022/12/02 10:53:22;;;;;;;;;;;10.00;70.80;;;;;;5074942;28;20407;-89
2022/12/02 10:55:47;;;;;;;;;;;9.90;71.20;;;;;;5061262;28;19959;-89
2022/12/02 10:58:15;;;;;;;;;;;9.90;71.80;;;;;;5072244;28;19940;-88
2022/12/02 11:00:41;;;;;;;;;;;9.90;71.80;;;;;;5072774;28;19943;-89
2022/12/02 11:03:07;;;;;;;;;;;9.80;71.80;;;;;;5072700;28;19952;-89
2022/12/02 11:05:34;;;;;;;;;;;9.90;71.80;;;;;;5070072;28;19946;-89
2022/12/02 11:08:04;;;;;;;;;;;9.90;71.90;;;;;;5060364;28;19967;-89
2022/12/02 11:10:35;;;;;;;;;;;10.00;72.00;;;;;;5072890;28;19945;-89
2022/12/02 11:13:03;;;;;;;;;;;10.00;72.00;;;;;;5075069;28;19949;-89
2022/12/02 11:15:31;;;;;;;;;;;9.90;72.30;;;;;;5075037;28;19973;-89
2022/12/02 11:17:57;;;;;;;;;;;10.00;71.40;;;;;;5074642;28;19944;-89
2022/12/02 11:20:33;;;;;;;;;;;10.10;71.40;;;;;;5075235;28;20254;-89
2022/12/02 11:22:58;;;;;;;;;;;10.20;70.80;;;;;;5075026;28;20011;-89
2022/12/02 11:25:42;;;;;;;;;;;10.10;71.50;;;;;;5075291;28;19935;-89
2022/12/02 11:28:13;;;;;;;;;;;10.10;71.00;;;;;;5075370;28;20058;-89
2022/12/02 11:30:39;;;;;;;;;;;10.00;71.50;;;;;;5074656;28;19953;-89
2022/12/02 11:33:08;;;;;;;;;;;9.90;71.60;;;;;;5069919;28;20010;-89
2022/12/02 11:35:52;;;;;;;;;;;9.90;72.40;;;;;;5074952;28;19956;-89
2022/12/02 11:38:19;;;;;;;;;;;9.90;73.00;;;;;;5073584;28;19939;-89
2022/12/02 11:40:44;;;;;;;;;;;10.10;73.00;;;;;;5074832;28;19992;-89
2022/12/02 11:43:36;;;;;;;;;;;10.10;72.60;;;;;;5074839;28;19945;-89
2022/12/02 11:46:03;;;;;;;;;;;10.30;72.00;;;;;;5058569;28;19939;-89
2022/12/02 11:48:29;;;;;;;;;;;10.40;71.50;;;;;;5075031;28;19941;-89
2022/12/02 11:50:55;;;;;;;;;;;10.40;71.30;;;;;;5074464;28;20488;-89
2022/12/02 11:53:21;;;;;;;;;;;10.40;70.90;;;;;;5074472;28;20000;-89
2022/12/02 11:55:48;;;;;;;;;;;10.30;71.50;;;;;;5074492;28;19944;-89
2022/12/02 11:58:26;;;;;;;;;;;10.30;71.50;;;;;;5074581;28;19938;-89
2022/12/02 12:01:01;;;;;;;;;;;10.30;71.90;;;;;;5074758;28;20045;-89
2022/12/02 12:03:27;;;;;;;;;;;10.20;71.90;;;;;;5074253;28;19941;-89
2022/12/02 12:06:05;;;;;;;;;;;10.20;71.70;;;;;;5074392;28;19985;-89
2022/12/02 12:08:30;;;;;;;;;;;10.10;71.80;;;;;;5074331;28;19941;-89
2022/12/02 12:11:14;;;;;;;;;;;10.10;72.50;;;;;;5072713;28;20417;-89
2022/12/02 12:13:58;;;;;;;;;;;10.00;72.40;;;;;;5073713;28;19995;-89
2022/12/02 12:16:24;;;;;;;;;;;9.80;72.90;;;;;;5073782;28;19959;-89
2022/12/02 12:18:50;;;;;;;;;;;9.80;72.80;;;;;;5074019;28;19943;-89
2022/12/02 12:21:30;;;;;;;;;;;9.70;73.40;;;;;;5073477;28;19951;-89
2022/12/02 12:24:15;;;;;;;;;;;9.90;72.90;;;;;;5073528;28;20022;-89
2022/12/02 12:26:41;;;;;;;;;;;9.90;73.20;;;;;;5067450;28;20007;-88
2022/12/02 12:29:07;;;;;;;;;;;9.80;73.40;;;;;;5070181;28;20400;-88
2022/12/02 12:31:32;;;;;;;;;;;9.90;72.80;;;;;;5066042;28;19940;-88
2022/12/02 12:33:58;;;;;;;;;;;10.30;71.90;;;;;;5065096;28;20304;-88
2022/12/02 12:36:23;;;;;;;;;;;10.30;71.50;;;;;;5066772;28;19955;-88
2022/12/02 12:38:49;;;;;;;;;;;10.20;72.20;;;;;;5064508;28;19989;-89
2022/12/02 12:41:14;;;;;;;;;;;10.10;71.30;;;;;;5067287;28;19946;-89
2022/12/02 12:43:40;;;;;;;;;;;10.10;71.30;;;;;;5062334;28;19954;-88
2022/12/02 12:46:06;;;;;;;;;;;10.00;71.80;;;;;;5067586;28;20389;-88
2022/12/02 12:48:31;;;;;;;;;;;9.90;71.10;;;;;;5067086;28;20074;-89
2022/12/02 12:50:57;;;;;;;;;;;10.00;69.80;;;;;;5076063;28;19944;-88
2022/12/02 12:53:22;;;;;;;;;;;10.20;70.30;;;;;;5073559;28;20011;-89
2022/12/02 12:55:48;;;;;;;;;;;10.30;69.00;;;;;;5071621;28;20337;-90
2022/12/02 12:58:14;;;;;;;;;;;10.40;69.20;;;;;;5072343;28;19943;-88
2022/12/02 13:00:40;;;;;;;;;;;10.60;68.70;;;;;;5060986;28;19961;-88
2022/12/02 13:03:05;;;;;;;;;;;10.60;68.00;;;;;;5067992;28;19968;-88
2022/12/02 13:05:31;;;;;;;;;;;10.90;67.40;;;;;;5069556;28;19946;-88
2022/12/02 13:07:57;;;;;;;;;;;10.80;67.80;;;;;;5082416;28;20423;-89
2022/12/02 13:10:22;;;;;;;;;;;10.70;68.20;;;;;;5070790;28;19942;-89
2022/12/02 13:12:48;;;;;;;;;;;10.60;67.70;;;;;;5070553;28;19943;-89
2022/12/02 13:15:13;;;;;;;;;;;10.60;67.80;;;;;;5065741;28;20352;-89
2022/12/02 13:17:39;;;;;;;;;;;10.50;67.70;;;;;;5063697;28;20293;-89
2022/12/02 13:20:05;;;;;;;;;;;10.70;68.20;;;;;;5065271;28;19945;-88
2022/12/02 13:22:31;;;;;;;;;;;10.80;67.60;;;;;;5064563;28;20014;-87
2022/12/02 13:24:56;;;;;;;;;;;10.80;67.20;;;;;;5061691;28;20377;-87
2022/12/02 13:27:22;;;;;;;;;;;10.90;67.50;;;;;;5069429;28;19978;-87
2022/12/02 13:29:48;;;;;;;;;;;11.10;66.60;;;;;;5070350;28;19947;-87
2022/12/02 13:32:14;;;;;;;;;;;11.10;67.30;;;;;;5068567;28;20564;-88
2022/12/02 13:34:39;;;;;;;;;;;11.00;66.70;;;;;;5070991;28;19965;-87
2022/12/02 13:37:05;;;;;;;;;;;11.00;66.50;;;;;;5076533;28;19998;-88
2022/12/02 13:39:30;;;;;;;;;;;10.90;66.90;;;;;;5069949;28;19953;-88
2022/12/02 13:41:56;;;;;;;;;;;10.80;68.60;;;;;;5056991;28;20034;-88
2022/12/02 13:44:21;;;;;;;;;;;10.70;68.30;;;;;;5067315;28;20321;-88
2022/12/02 13:46:47;;;;;;;;;;;10.60;69.10;;;;;;5066640;28;20368;-88
2022/12/02 13:49:12;;;;;;;;;;;10.60;69.30;;;;;;5071293;28;19942;-88
2022/12/02 13:51:38;;;;;;;;;;;10.40;69.60;;;;;;5069722;28;20461;-88
2022/12/02 13:54:04;;;;;;;;;;;10.30;70.60;;;;;;5063777;28;20041;-88
2022/12/02 13:56:29;;;;;;;;;;;10.30;70.10;;;;;;5068627;28;20618;-87
2022/12/02 13:58:55;;;;;;;;;;;10.20;70.00;;;;;;5065175;28;19943;-88
2022/12/02 14:01:21;;;;;;;;;;;10.20;70.40;;;;;;5064955;28;19942;-87
2022/12/02 14:03:46;;;;;;;;;;;10.20;70.80;;;;;;5067279;28;19945;-88
2022/12/02 14:06:12;;;;;;;;;;;10.20;71.10;;;;;;5067928;28;19965;-89
2022/12/02 14:08:37;;;;;;;;;;;10.20;71.00;;;;;;5071129;28;19947;-88
2022/12/02 14:11:03;;;;;;;;;;;10.40;70.30;;;;;;5070771;28;19945;-88
2022/12/02 14:13:28;;;;;;;;;;;10.50;69.30;;;;;;5067368;28;19947;-87
2022/12/02 14:15:54;;;;;;;;;;;10.60;69.80;;;;;;5068221;28;19943;-86
2022/12/02 14:18:19;;;;;;;;;;;10.60;69.60;;;;;;5071173;28;19944;-87
2022/12/02 14:20:45;;;;;;;;;;;10.60;69.50;;;;;;5071507;28;19940;-88
2022/12/02 14:23:11;;;;;;;;;;;10.40;69.70;;;;;;5065545;28;20073;-88
2022/12/02 14:25:36;;;;;;;;;;;10.20;70.40;;;;;;5066536;28;19955;-88
2022/12/02 14:28:04;;;;;;;;;;;10.20;70.70;;;;;;5073502;28;20550;-87
2022/12/02 14:30:29;;;;;;;;;;;10.30;70.50;;;;;;5076433;28;20423;-88